MDT,Max TemperatureF,Mean TemperatureF,Min TemperatureF,Max Dew PointF,MeanDew PointF,Min DewpointF,Max Humidity, Mean Humidity, Min Humidity, Max Sea Level PressureIn, Mean Sea Level PressureIn, Min Sea Level PressureIn, Max VisibilityMiles, Mean VisibilityMiles, Min VisibilityMiles, Max Wind SpeedMPH, Mean Wind SpeedMPH, Max Gust SpeedMPH,PrecipitationIn, CloudCover, Events, WindDirDegrees
2012-8-1,78,64,51,54,47,41,82,59,26,30.52,30.44,30.36,10,10,6,24,4,37,0.12,3,Thunderstorm,353
2012-8-2,78,64,50,52,48,39,88,66,29,30.45,30.38,30.29,10,10,7,21,5,24,0.12,3,Thunderstorm,320
2012-8-3,80,62,44,52,41,30,87,54,16,30.40,30.31,30.21,10,10,9,10,3,17,0.12,0,,329
2012-8-4,82,63,44,43,35,27,76,41,13,30.44,30.35,30.28,10,10,10,13,3,20,0.00,0,,355
2012-8-5,82,65,48,45,37,27,66,36,14,30.56,30.49,30.42,10,10,10,13,5,18,0.00,0,,272
2012-8-6,84,67,50,52,44,37,82,51,19,30.61,30.54,30.43,10,10,9,28,5,34,0.13,3,Thunderstorm,329
2012-8-7,82,66,50,52,47,39,82,59,26,30.57,30.50,30.40,10,10,10,21,4,28,0.00,1,Thunderstorm,314
2012-8-8,84,65,46,46,38,27,82,44,12,30.59,30.51,30.42,10,10,5,10,3,,0.00,0,,318
2012-8-9,80,62,44,50,40,34,71,47,21,30.56,30.51,30.44,10,10,5,21,5,29,0.00,2,,332
2012-8-10,82,64,46,52,46,39,82,61,26,30.51,30.44,30.34,10,10,8,20,4,26,0.18,3,Thunderstorm,34
2012-8-11,82,66,50,50,45,36,87,55,20,30.43,30.37,30.30,10,10,10,22,5,37,0.00,2,Thunderstorm,301
2012-8-12,82,64,46,45,39,30,82,44,16,30.48,30.41,30.31,10,10,10,18,4,24,0.00,0,,45
2012-8-13,73,62,51,54,45,39,88,57,33,30.48,30.41,30.32,10,10,7,16,7,20,0.16,4,Thunderstorm,26
2012-8-14,71,58,44,50,45,37,87,66,33,30.44,30.36,30.29,10,10,8,18,4,25,0.00,1,Thunderstorm,329
2012-8-15,78,60,42,45,39,30,82,53,19,30.37,30.31,30.24,10,10,10,21,4,30,0.00,1,,334
2012-8-16,80,61,42,43,38,30,81,47,19,30.42,30.35,30.27,10,10,10,16,4,20,0.00,1,,327
2012-8-17,82,64,46,45,37,34,71,40,17,30.44,30.35,30.23,10,10,10,22,8,29,0.00,2,,353
2012-8-18,82,63,44,43,35,23,76,39,13,30.40,30.31,30.21,10,10,10,15,6,21,0.00,0,,348
2012-8-19,82,63,44,41,32,27,61,35,13,30.41,30.31,30.21,10,10,10,13,7,18,0.00,0,,341
2012-8-20,68,59,50,48,39,30,71,50,34,30.37,30.33,30.29,10,10,10,15,4,20,0.00,4,,23
2012-8-21,80,60,41,45,38,28,87,52,16,30.44,30.35,30.25,10,10,10,8,2,,0.00,0,,264
2012-8-22,73,60,48,46,40,34,66,51,33,30.37,30.31,30.25,10,10,10,12,3,18,0.00,4,,248
2012-8-23,75,64,53,54,47,43,88,65,33,30.30,30.25,30.17,10,10,9,21,4,28,0.04,5,Thunderstorm,212
2012-8-24,68,60,53,54,50,45,88,73,46,30.28,30.23,30.18,10,10,7,12,2,18,0.18,7,Thunderstorm,352
2012-8-25,75,58,42,48,43,37,87,60,25,30.34,30.29,30.21,10,10,10,16,3,24,0.00,0,,274
2012-8-26,80,61,42,45,40,36,81,52,20,30.46,30.40,30.34,10,10,10,16,4,25,0.00,0,,300
2012-8-27,82,63,44,46,42,36,76,51,20,30.57,30.50,30.43,10,10,10,16,4,24,0.00,2,Thunderstorm,338
2012-8-28,82,65,48,48,44,37,82,55,20,30.59,30.50,30.41,10,10,7,24,4,31,0.09,1,Thunderstorm,354
2012-8-29,82,64,46,46,44,37,87,57,21,30.47,30.40,30.30,10,10,10,24,3,28,0.00,1,Thunderstorm,354
2012-8-30,82,65,48,46,43,37,82,51,21,30.39,30.32,30.22,10,10,10,18,4,26,0.00,1,Thunderstorm,341
2012-8-31,80,64,48,46,43,37,76,51,23,30.40,30.35,30.31,10,10,9,18,5,26,0.00,2,,1